Time;durP1;ratioP1;P1;durP2;ratioP2;P2;SDS_P1;SDS_P2;PMS_P1;PMS_P2;Temp;Humidity;BMP_temperature;BMP_pressure;BME280_temperature;BME280_humidity;BME280_pressure;Samples;Min_cycle;Max_cycle;Signal;HPM_P1;HPM_P2
2023/10/28 00:01:35;;;;;;;3.40;1.43;;;21.60;97.60;;;;;;5018613;28;22253;-61
2023/10/28 00:04:03;;;;;;;1.23;1.13;;;21.60;97.60;;;;;;5019117;28;20949;-62
2023/10/28 00:06:31;;;;;;;1.53;1.20;;;21.60;97.70;;;;;;5018859;28;20680;-61
2023/10/28 00:08:58;;;;;;;2.23;1.60;;;21.60;97.60;;;;;;5019313;28;20850;-61
2023/10/28 00:11:24;;;;;;;1.30;1.17;;;21.60;97.60;;;;;;5019493;28;20841;-61
2023/10/28 00:13:52;;;;;;;1.17;1.07;;;21.60;97.70;;;;;;5017173;28;20490;-61
2023/10/28 00:16:18;;;;;;;1.53;1.23;;;21.60;97.80;;;;;;5016218;28;20513;-61
2023/10/28 00:18:46;;;;;;;1.50;1.40;;;21.50;97.80;;;;;;5017103;28;20457;-62
2023/10/28 00:21:12;;;;;;;1.80;1.50;;;21.50;97.80;;;;;;5018481;28;20560;-61
2023/10/28 00:23:40;;;;;;;1.30;1.10;;;21.50;97.80;;;;;;5021286;28;21082;-61
2023/10/28 00:26:07;;;;;;;1.30;1.20;;;21.50;97.80;;;;;;5016379;28;20468;-61
2023/10/28 00:28:34;;;;;;;1.37;1.13;;;21.50;97.70;;;;;;5020337;28;21009;-61
2023/10/28 00:31:02;;;;;;;1.97;1.40;;;21.50;97.80;;;;;;5016645;28;22094;-62
2023/10/28 00:33:29;;;;;;;1.83;1.63;;;21.50;97.80;;;;;;5018873;28;20466;-61
2023/10/28 00:35:55;;;;;;;1.47;1.37;;;21.50;97.80;;;;;;5016646;28;20481;-61
2023/10/28 00:38:23;;;;;;;1.40;1.30;;;21.50;97.80;;;;;;5017415;28;20465;-61
2023/10/28 00:40:51;;;;;;;1.20;1.10;;;21.60;97.90;;;;;;5016074;28;20556;-62
2023/10/28 00:43:22;;;;;;;1.90;1.43;;;21.40;97.80;;;;;;5019273;28;20481;-61
2023/10/28 00:45:49;;;;;;;1.30;1.20;;;21.40;97.80;;;;;;5016727;28;20458;-62
2023/10/28 00:48:17;;;;;;;1.20;1.00;;;21.40;97.80;;;;;;5016920;28;20470;-62
2023/10/28 00:50:44;;;;;;;2.63;1.47;;;21.40;97.80;;;;;;5021766;28;20472;-61
2023/10/28 00:53:11;;;;;;;1.30;1.20;;;21.40;98.20;;;;;;5023120;28;20548;-61
2023/10/28 00:55:39;;;;;;;1.33;1.23;;;21.40;97.90;;;;;;5021545;28;20473;-61
2023/10/28 00:58:09;;;;;;;1.50;1.40;;;21.40;97.90;;;;;;5018886;28;21319;-61
2023/10/28 01:00:36;;;;;;;1.30;1.07;;;21.40;98.30;;;;;;5019881;28;20977;-61
2023/10/28 01:03:03;;;;;;;1.70;1.60;;;21.50;98.60;;;;;;5038175;22;20537;-59
2023/10/28 01:05:33;;;;;;;1.60;1.50;;;21.30;98.50;;;;;;5023936;28;20933;-59
2023/10/28 01:08:00;;;;;;;1.70;1.47;;;21.40;98.40;;;;;;5023089;28;20461;-59
2023/10/28 01:10:28;;;;;;;1.77;1.57;;;21.30;98.50;;;;;;5022250;28;20461;-59
2023/10/28 01:12:55;;;;;;;1.60;1.50;;;21.40;98.80;;;;;;5024620;28;20466;-60
2023/10/28 01:15:23;;;;;;;1.60;1.33;;;21.30;98.70;;;;;;5022422;28;20468;-61
2023/10/28 01:17:50;;;;;;;1.80;1.47;;;21.40;98.90;;;;;;5026705;28;20477;-59
2023/10/28 01:20:17;;;;;;;1.30;1.20;;;21.30;99.20;;;;;;5023029;28;20464;-61
2023/10/28 01:22:45;;;;;;;2.00;1.60;;;21.30;98.70;;;;;;5026353;28;20473;-61
2023/10/28 01:25:12;;;;;;;1.30;1.20;;;21.30;98.70;;;;;;5023831;28;20469;-61
2023/10/28 01:27:39;;;;;;;1.53;1.17;;;21.20;98.80;;;;;;5024121;28;20960;-60
2023/10/28 01:30:13;;;;;;;1.87;1.50;;;21.30;98.80;;;;;;5022942;28;20594;-60
2023/10/28 01:32:40;;;;;;;1.50;1.33;;;21.30;98.90;;;;;;5025314;28;20466;-61
2023/10/28 01:35:09;;;;;;;1.60;1.47;;;21.20;98.80;;;;;;5020082;28;20555;-61
2023/10/28 01:37:37;;;;;;;1.50;1.30;;;21.30;98.80;;;;;;5022428;28;20465;-60
2023/10/28 01:40:12;;;;;;;1.30;1.10;;;21.20;98.70;;;;;;5022397;28;20467;-60
2023/10/28 01:42:39;;;;;;;1.30;1.13;;;21.30;98.80;;;;;;5024076;28;20585;-60
2023/10/28 01:45:07;;;;;;;1.53;1.27;;;21.20;98.80;;;;;;5018944;28;20544;-62
2023/10/28 01:47:34;;;;;;;1.50;1.40;;;21.30;98.90;;;;;;5023772;28;20839;-62
2023/10/28 01:50:01;;;;;;;1.60;1.20;;;21.20;98.80;;;;;;5014929;28;20545;-62
2023/10/28 01:52:28;;;;;;;2.53;1.37;;;21.20;98.80;;;;;;5021784;28;21060;-61
2023/10/28 01:54:55;;;;;;;1.67;1.57;;;21.20;98.80;;;;;;5014839;28;20547;-61
2023/10/28 01:57:24;;;;;;;1.70;1.33;;;21.20;98.80;;;;;;5015938;28;20462;-61
2023/10/28 01:59:52;;;;;;;1.47;1.37;;;21.20;98.90;;;;;;5017626;28;20464;-61
2023/10/28 02:02:19;;;;;;;1.33;1.23;;;21.20;99.10;;;;;;5016688;28;20500;-61
2023/10/28 02:04:46;;;;;;;1.17;1.07;;;21.10;99.10;;;;;;5014554;28;21890;-61
2023/10/28 02:07:12;;;;;;;1.40;1.10;;;21.20;99.60;;;;;;5018931;28;20545;-61
2023/10/28 02:09:39;;;;;;;1.00;0.90;;;21.20;99.30;;;;;;5020109;28;20954;-62
2023/10/28 02:12:06;;;;;;;1.67;1.50;;;21.10;99.30;;;;;;5023800;28;20457;-61
2023/10/28 02:14:35;;;;;;;1.20;1.10;;;21.20;99.50;;;;;;5021726;28;20808;-61
2023/10/28 02:17:02;;;;;;;1.20;1.10;;;21.10;99.40;;;;;;5020857;28;20202;-62
2023/10/28 02:19:29;;;;;;;1.30;1.10;;;21.20;99.50;;;;;;5018678;28;20476;-61
2023/10/28 02:21:58;;;;;;;1.70;1.43;;;21.20;99.70;;;;;;5020495;28;20457;-62
2023/10/28 02:24:26;;;;;;;2.83;1.40;;;21.20;99.60;;;;;;5021366;28;20995;-61
2023/10/28 02:26:52;;;;;;;1.40;1.30;;;21.10;99.80;;;;;;5022662;28;20462;-61
2023/10/28 02:29:19;;;;;;;1.23;1.13;;;21.10;99.90;;;;;;5017120;28;20461;-61
2023/10/28 02:31:48;;;;;;;1.40;1.30;;;21.10;99.90;;;;;;5017825;28;20457;-62
2023/10/28 02:34:15;;;;;;;1.40;1.30;;;21.10;99.90;;;;;;5017165;28;20323;-61
2023/10/28 02:36:42;;;;;;;1.40;1.30;;;21.10;99.90;;;;;;5017730;28;20547;-61
2023/10/28 02:39:11;;;;;;;1.33;1.23;;;21.10;99.90;;;;;;5015737;28;20199;-61
2023/10/28 02:41:38;;;;;;;1.40;1.23;;;21.10;99.90;;;;;;5020243;28;20469;-61
2023/10/28 02:44:05;;;;;;;1.45;1.25;;;21.10;99.90;;;;;;5020091;28;21157;-61
2023/10/28 02:46:32;;;;;;;1.05;0.95;;;21.10;99.90;;;;;;5019962;28;20207;-62
2023/10/28 02:49:00;;;;;;;1.40;1.30;;;21.10;99.90;;;;;;5020411;28;20204;-62
2023/10/28 02:51:28;;;;;;;1.45;1.20;;;21.00;99.90;;;;;;5020881;28;20966;-62
2023/10/28 02:53:54;;;;;;;2.13;1.30;;;21.10;99.90;;;;;;5019731;28;20206;-62
2023/10/28 02:56:21;;;;;;;2.03;1.33;;;21.20;99.90;;;;;;5017383;28;20206;-61
2023/10/28 02:58:48;;;;;;;1.40;1.17;;;21.00;99.90;;;;;;5019500;28;20773;-61
2023/10/28 03:01:15;;;;;;;1.40;1.20;;;21.00;99.90;;;;;;5018587;28;20461;-61
2023/10/28 03:03:43;;;;;;;1.33;1.05;;;21.10;99.90;;;;;;5018228;28;20527;-61
2023/10/28 03:06:11;;;;;;;1.70;1.23;;;21.00;99.90;;;;;;5020792;28;20654;-58
2023/10/28 03:08:38;;;;;;;1.50;1.27;;;21.00;99.90;;;;;;5019310;28;20234;-61
2023/10/28 03:11:05;;;;;;;1.90;1.53;;;21.00;99.90;;;;;;5019782;28;20200;-60
2023/10/28 03:13:32;;;;;;;2.17;1.57;;;21.10;99.90;;;;;;5020216;28;20454;-61
2023/10/28 03:15:58;;;;;;;1.30;1.20;;;21.00;99.90;;;;;;5020293;28;20628;-61
2023/10/28 03:18:25;;;;;;;1.50;1.40;;;20.90;99.90;;;;;;5019046;28;22918;-61
2023/10/28 03:20:55;;;;;;;1.38;1.13;;;21.00;99.90;;;;;;5021930;28;20200;-61
2023/10/28 03:23:24;;;;;;;1.40;1.30;;;21.00;99.90;;;;;;5022747;28;20670;-62
2023/10/28 03:25:51;;;;;;;1.10;1.00;;;21.00;99.90;;;;;;5023545;28;20575;-61
2023/10/28 03:28:18;;;;;;;1.33;1.20;;;21.10;99.90;;;;;;5018291;28;20470;-61
2023/10/28 03:30:44;;;;;;;1.40;1.20;;;21.00;99.90;;;;;;5015519;28;20667;-61
2023/10/28 03:33:11;;;;;;;1.20;1.10;;;20.90;99.90;;;;;;5017967;28;20210;-61
2023/10/28 03:35:38;;;;;;;1.10;1.00;;;21.00;99.90;;;;;;5020364;28;20700;-61
2023/10/28 03:38:05;;;;;;;1.80;1.70;;;21.00;99.90;;;;;;5022322;28;20454;-62
2023/10/28 03:40:33;;;;;;;1.50;1.10;;;20.90;99.90;;;;;;5019903;28;20210;-61
2023/10/28 03:43:00;;;;;;;1.53;1.40;;;21.00;99.90;;;;;;5021228;28;20246;-61
2023/10/28 03:45:28;;;;;;;1.50;1.40;;;20.90;99.90;;;;;;5017548;28;20454;-61
2023/10/28 03:47:54;;;;;;;1.20;0.90;;;20.90;99.90;;;;;;5020695;28;20462;-61
2023/10/28 03:50:21;;;;;;;1.30;1.10;;;20.90;99.90;;;;;;5017044;28;21038;-61
2023/10/28 03:52:48;;;;;;;1.30;1.20;;;20.90;99.90;;;;;;5021137;28;20879;-62
2023/10/28 03:55:15;;;;;;;1.60;1.10;;;20.90;99.90;;;;;;5018759;28;20536;-61
2023/10/28 03:57:43;;;;;;;1.17;0.90;;;20.80;99.90;;;;;;5015512;28;20203;-61
2023/10/28 04:00:11;;;;;;;1.10;0.90;;;20.90;99.90;;;;;;5012744;28;20650;-61
2023/10/28 04:02:38;;;;;;;1.40;1.30;;;20.90;99.90;;;;;;5016769;28;20496;-61
2023/10/28 04:05:05;;;;;;;1.20;1.10;;;20.90;99.90;;;;;;5014950;28;20487;-61
2023/10/28 04:07:32;;;;;;;1.10;1.00;;;20.90;99.90;;;;;;5016565;28;20459;-61
2023/10/28 04:10:03;;;;;;;1.40;1.20;;;20.90;99.90;;;;;;5016946;28;20853;-62
2023/10/28 04:12:31;;;;;;;1.45;1.10;;;20.80;99.90;;;;;;5015131;28;20453;-60
2023/10/28 04:14:59;;;;;;;1.58;0.95;;;20.90;99.90;;;;;;5015808;28;20271;-61
2023/10/28 04:17:30;;;;;;;1.40;1.20;;;20.80;99.90;;;;;;5016470;28;20508;-61
2023/10/28 04:19:57;;;;;;;1.20;0.90;;;20.90;99.90;;;;;;5016941;28;20201;-61
2023/10/28 04:22:24;;;;;;;1.65;1.13;;;20.90;99.90;;;;;;5017558;28;20584;-62
2023/10/28 04:24:51;;;;;;;1.60;1.27;;;20.80;99.90;;;;;;5018357;28;20197;-61
2023/10/28 04:27:18;;;;;;;1.40;1.08;;;20.90;99.90;;;;;;5019633;28;20791;-61
2023/10/28 04:29:45;;;;;;;1.50;1.20;;;20.80;99.90;;;;;;5019068;28;20191;-61
2023/10/28 04:32:13;;;;;;;1.43;1.23;;;20.80;99.90;;;;;;5022392;28;20458;-61
2023/10/28 04:34:40;;;;;;;1.25;1.00;;;20.90;99.90;;;;;;5021804;28;20490;-62
2023/10/28 04:37:07;;;;;;;1.50;1.33;;;20.70;99.90;;;;;;5021689;28;20589;-61
2023/10/28 04:39:34;;;;;;;1.40;1.30;;;20.80;99.90;;;;;;5024566;28;20210;-60
2023/10/28 04:42:00;;;;;;;1.30;1.08;;;20.80;99.90;;;;;;5021059;28;20203;-61
2023/10/28 04:44:27;;;;;;;1.45;1.35;;;20.80;99.90;;;;;;5022992;28;20252;-61
2023/10/28 04:46:54;;;;;;;1.30;1.20;;;20.80;99.90;;;;;;5022367;28;20221;-64
2023/10/28 04:49:22;;;;;;;2.03;1.10;;;20.80;99.90;;;;;;5021648;28;20211;-61
2023/10/28 04:51:49;;;;;;;1.20;0.95;;;20.80;99.90;;;;;;5024256;28;20712;-61
2023/10/28 04:54:16;;;;;;;1.30;1.00;;;20.80;99.90;;;;;;5021303;28;20686;-61
2023/10/28 04:56:42;;;;;;;1.20;1.05;;;20.70;99.90;;;;;;5023672;28;20461;-61
2023/10/28 04:59:10;;;;;;;1.30;1.03;;;20.90;99.90;;;;;;5022637;28;20195;-61
2023/10/28 05:01:37;;;;;;;1.75;0.95;;;20.70;99.90;;;;;;5022552;28;20527;-61
2023/10/28 05:04:03;;;;;;;1.60;1.50;;;20.80;99.90;;;;;;5017397;28;21850;-60
2023/10/28 05:06:31;;;;;;;1.45;1.35;;;20.60;99.90;;;;;;5019567;28;20461;-61
2023/10/28 05:08:58;;;;;;;1.20;0.90;;;20.80;99.90;;;;;;5022122;28;20203;-61
2023/10/28 05:11:25;;;;;;;1.98;1.10;;;20.80;99.90;;;;;;5023301;28;20195;-59
2023/10/28 05:13:52;;;;;;;1.20;1.10;;;20.70;99.90;;;;;;5021961;28;21996;-62
2023/10/28 05:16:19;;;;;;;1.25;1.15;;;20.80;99.90;;;;;;5020266;28;20552;-62
2023/10/28 05:18:46;;;;;;;1.77;1.65;;;20.80;99.90;;;;;;5023424;28;20282;-61
2023/10/28 05:21:14;;;;;;;1.30;0.90;;;20.80;99.90;;;;;;5020146;28;20610;-61
2023/10/28 05:23:42;;;;;;;1.33;1.20;;;20.70;99.90;;;;;;5022143;28;20481;-62
2023/10/28 05:26:10;;;;;;;1.10;0.90;;;20.70;99.90;;;;;;5023159;28;20829;-61
2023/10/28 05:28:36;;;;;;;1.33;1.10;;;20.70;99.90;;;;;;5024314;28;20484;-62
2023/10/28 05:31:04;;;;;;;1.30;0.90;;;20.70;99.90;;;;;;5025629;28;20601;-61
2023/10/28 05:33:30;;;;;;;1.38;1.27;;;20.70;99.90;;;;;;5024566;28;20544;-62
2023/10/28 05:35:57;;;;;;;1.20;1.00;;;20.70;99.90;;;;;;5022823;28;20254;-61
2023/10/28 05:38:24;;;;;;;1.30;1.02;;;20.70;99.90;;;;;;5025073;28;20200;-61
2023/10/28 05:40:54;;;;;;;1.35;1.25;;;20.70;99.90;;;;;;5025439;28;20195;-61
2023/10/28 05:43:21;;;;;;;1.60;1.30;;;20.70;99.90;;;;;;5020735;28;20218;-61
2023/10/28 05:45:48;;;;;;;1.30;1.20;;;20.70;99.90;;;;;;5019557;28;20190;-61
2023/10/28 05:48:17;;;;;;;1.40;1.00;;;20.80;99.90;;;;;;5022506;28;20203;-62
2023/10/28 05:50:43;;;;;;;1.10;0.90;;;20.60;99.90;;;;;;5023272;28;20204;-62
2023/10/28 05:53:10;;;;;;;1.40;1.00;;;20.60;99.90;;;;;;5021324;28;20199;-61
2023/10/28 05:55:37;;;;;;;1.48;0.95;;;20.60;99.90;;;;;;5022047;28;20699;-61
2023/10/28 05:58:06;;;;;;;1.70;1.40;;;20.70;99.90;;;;;;5020543;28;20674;-60
2023/10/28 06:00:33;;;;;;;1.20;1.10;;;20.70;99.90;;;;;;5015450;28;20214;-61
2023/10/28 06:03:00;;;;;;;1.00;0.90;;;20.60;99.90;;;;;;5016910;28;20715;-62
2023/10/28 06:05:26;;;;;;;1.38;1.13;;;20.70;99.90;;;;;;5017744;28;20198;-61
2023/10/28 06:07:53;;;;;;;1.30;1.00;;;20.60;99.90;;;;;;5015757;28;20317;-62
2023/10/28 06:10:22;;;;;;;1.10;1.00;;;20.50;99.90;;;;;;5018268;28;20663;-61
2023/10/28 06:12:49;;;;;;;1.73;1.10;;;20.50;99.90;;;;;;5019402;28;20197;-61
2023/10/28 06:15:17;;;;;;;1.10;1.00;;;20.60;99.90;;;;;;5015293;28;20200;-61
2023/10/28 06:17:45;;;;;;;1.20;1.10;;;20.60;99.90;;;;;;5018312;28;20191;-62
2023/10/28 06:20:12;;;;;;;1.00;0.80;;;20.60;99.90;;;;;;5017846;28;20799;-62
2023/10/28 06:22:39;;;;;;;1.52;0.95;;;20.60;99.90;;;;;;5019077;28;20203;-61
2023/10/28 06:25:07;;;;;;;1.13;0.90;;;20.60;99.90;;;;;;5018836;28;20223;-60
2023/10/28 06:27:34;;;;;;;1.60;1.50;;;20.60;99.90;;;;;;5019874;28;20652;-61
2023/10/28 06:30:01;;;;;;;1.20;0.98;;;20.60;99.90;;;;;;5019358;28;20549;-60
2023/10/28 06:32:29;;;;;;;1.30;1.10;;;20.70;99.90;;;;;;5017930;28;20200;-60
2023/10/28 06:34:56;;;;;;;1.42;1.20;;;20.70;99.90;;;;;;5017405;28;20200;-60
2023/10/28 06:37:23;;;;;;;1.20;1.00;;;20.70;99.90;;;;;;5017568;28;20200;-61
2023/10/28 06:39:50;;;;;;;1.10;0.90;;;20.70;99.90;;;;;;5020419;28;20576;-60
2023/10/28 06:42:17;;;;;;;1.20;1.00;;;20.70;99.90;;;;;;5020129;28;20204;-60
2023/10/28 06:44:44;;;;;;;1.10;0.90;;;20.80;99.90;;;;;;5017245;28;20234;-60
2023/10/28 06:47:11;;;;;;;1.38;1.15;;;20.70;99.90;;;;;;5016436;28;20463;-58
2023/10/28 06:49:41;;;;;;;1.00;0.80;;;20.80;99.90;;;;;;5019162;28;20199;-60
2023/10/28 06:52:08;;;;;;;1.30;1.07;;;20.80;99.90;;;;;;5017938;28;20935;-58
2023/10/28 06:54:37;;;;;;;1.50;1.30;;;20.80;99.90;;;;;;5019292;28;20469;-60
2023/10/28 06:57:04;;;;;;;1.87;1.40;;;20.80;99.90;;;;;;5019990;28;20550;-60
2023/10/28 06:59:34;;;;;;;1.20;1.07;;;20.90;99.90;;;;;;5013782;28;21013;-60
2023/10/28 07:02:01;;;;;;;1.00;0.77;;;20.90;99.90;;;;;;5017647;28;20461;-61
2023/10/28 07:04:28;;;;;;;1.20;0.90;;;20.80;99.90;;;;;;5017244;28;20473;-62
2023/10/28 07:06:56;;;;;;;1.10;0.90;;;20.80;99.90;;;;;;5018815;28;20204;-62
2023/10/28 07:09:22;;;;;;;1.13;0.90;;;20.80;99.90;;;;;;5018897;28;20817;-61
2023/10/28 07:11:50;;;;;;;1.00;0.88;;;21.00;99.90;;;;;;5018121;28;21021;-61
2023/10/28 07:14:16;;;;;;;1.13;1.03;;;20.90;99.90;;;;;;5019706;28;20588;-61
2023/10/28 07:16:43;;;;;;;0.97;0.80;;;21.00;99.90;;;;;;5019148;28;20462;-62
2023/10/28 07:19:12;;;;;;;0.90;0.77;;;21.00;99.90;;;;;;5018479;28;20458;-62
2023/10/28 07:21:39;;;;;;;1.20;0.98;;;21.00;99.90;;;;;;5020935;28;20473;-61
2023/10/28 07:24:11;;;;;;;1.17;1.07;;;21.00;99.90;;;;;;5018057;28;20215;-61
2023/10/28 07:26:38;;;;;;;7.47;1.13;;;21.00;99.90;;;;;;5019670;28;20473;-60
2023/10/28 07:29:07;;;;;;;5.50;1.07;;;21.10;99.90;;;;;;5018696;28;20462;-59
2023/10/28 07:31:34;;;;;;;1.23;0.97;;;21.00;99.90;;;;;;5019953;28;20839;-62
2023/10/28 07:34:02;;;;;;;1.20;0.87;;;21.10;99.90;;;;;;5017896;28;20458;-61
2023/10/28 07:36:29;;;;;;;1.30;1.10;;;21.00;99.90;;;;;;5017489;28;20697;-62
2023/10/28 07:38:55;;;;;;;1.27;1.10;;;21.00;99.90;;;;;;5021129;28;20517;-62
2023/10/28 07:41:23;;;;;;;1.07;0.97;;;21.10;99.90;;;;;;5021959;28;20471;-62
2023/10/28 07:43:50;;;;;;;1.27;0.93;;;21.10;99.90;;;;;;5017289;28;20477;-60
2023/10/28 07:46:17;;;;;;;1.20;0.90;;;21.20;99.90;;;;;;5022380;28;20488;-62
2023/10/28 07:48:44;;;;;;;1.00;0.80;;;21.20;99.90;;;;;;5021253;28;21182;-62
2023/10/28 07:51:13;;;;;;;1.40;1.00;;;21.20;99.90;;;;;;5018210;28;20629;-62
2023/10/28 07:53:40;;;;;;;1.20;1.00;;;21.20;99.90;;;;;;5022177;28;20464;-61
2023/10/28 07:56:07;;;;;;;1.00;0.73;;;21.30;99.90;;;;;;5013877;28;20995;-62
2023/10/28 07:58:35;;;;;;;1.53;0.93;;;21.20;99.90;;;;;;5013974;28;20461;-61
2023/10/28 08:01:03;;;;;;;1.20;1.07;;;21.20;99.90;;;;;;5016813;28;20468;-62
2023/10/28 08:03:32;;;;;;;1.10;0.97;;;21.20;99.90;;;;;;5017015;28;20833;-60
2023/10/28 08:05:59;;;;;;;1.10;0.90;;;21.30;99.90;;;;;;5017667;28;20974;-61
2023/10/28 08:08:26;;;;;;;1.40;0.90;;;21.20;99.90;;;;;;5019974;28;20539;-61
2023/10/28 08:10:54;;;;;;;1.30;0.90;;;21.20;99.90;;;;;;5016348;28;20661;-61
2023/10/28 08:13:21;;;;;;;1.13;0.80;;;21.20;99.90;;;;;;5014873;28;20648;-61
2023/10/28 08:15:52;;;;;;;1.10;0.73;;;21.30;99.90;;;;;;5016598;28;20481;-61
2023/10/28 08:18:19;;;;;;;1.30;1.00;;;21.20;99.90;;;;;;5013288;28;20457;-62
2023/10/28 08:20:46;;;;;;;1.10;0.90;;;21.40;99.90;;;;;;5015062;28;20458;-61
2023/10/28 08:23:12;;;;;;;1.00;0.80;;;21.30;99.90;;;;;;5016170;28;21075;-62
2023/10/28 08:25:39;;;;;;;1.10;0.80;;;21.30;99.90;;;;;;5013404;28;20485;-61
2023/10/28 08:28:06;;;;;;;2.47;1.03;;;21.30;99.90;;;;;;5013715;28;20465;-65
2023/10/28 08:30:35;;;;;;;1.53;1.10;;;21.30;99.90;;;;;;5015891;28;20462;-64
2023/10/28 08:33:03;;;;;;;1.30;1.03;;;21.40;99.90;;;;;;5017720;28;20504;-66
2023/10/28 08:35:30;;;;;;;1.30;1.07;;;21.30;99.90;;;;;;5011553;28;20469;-64
2023/10/28 08:37:59;;;;;;;1.40;1.10;;;21.30;99.90;;;;;;5014613;28;20473;-65
2023/10/28 08:40:26;;;;;;;1.40;1.10;;;21.30;99.90;;;;;;5014692;28;20565;-63
2023/10/28 08:42:52;;;;;;;1.20;1.00;;;21.30;99.90;;;;;;5012628;28;20462;-67
2023/10/28 08:45:23;;;;;;;1.33;1.00;;;21.30;99.90;;;;;;5011931;28;20477;-65
2023/10/28 08:47:51;;;;;;;1.33;1.10;;;21.40;99.90;;;;;;5014759;28;20962;-62
2023/10/28 08:50:24;;;;;;;1.63;1.10;;;21.30;99.90;;;;;;5011909;28;20455;-64
2023/10/28 08:52:56;;;;;;;1.80;1.23;;;21.40;99.90;;;;;;5017595;28;20942;-65
2023/10/28 08:55:23;;;;;;;1.40;1.00;;;21.50;99.90;;;;;;5011566;28;20461;-64
2023/10/28 08:57:51;;;;;;;1.60;1.30;;;21.40;99.90;;;;;;5012108;28;20938;-65
2023/10/28 09:00:21;;;;;;;1.83;1.00;;;21.50;99.90;;;;;;5011744;28;21210;-64
2023/10/28 09:02:50;;;;;;;1.50;1.30;;;21.40;99.90;;;;;;5017953;28;20512;-63
2023/10/28 09:05:19;;;;;;;3.03;1.53;;;21.40;99.90;;;;;;5012487;28;20492;-65
2023/10/28 09:07:47;;;;;;;1.47;1.10;;;21.50;99.90;;;;;;5017933;28;20474;-65
2023/10/28 09:10:15;;;;;;;1.23;1.00;;;21.40;99.90;;;;;;5018758;28;20465;-65
2023/10/28 09:12:43;;;;;;;2.07;1.07;;;21.50;99.90;;;;;;5023163;28;20461;-65
2023/10/28 09:15:12;;;;;;;1.30;1.00;;;21.50;99.90;;;;;;5019160;28;20489;-63
2023/10/28 09:17:39;;;;;;;1.60;1.37;;;21.60;99.90;;;;;;5019804;28;20483;-65
2023/10/28 09:20:09;;;;;;;2.13;0.97;;;21.50;99.90;;;;;;5016358;28;20545;-65
2023/10/28 09:22:39;;;;;;;1.20;1.00;;;21.50;99.90;;;;;;5018730;28;20466;-65
2023/10/28 09:25:09;;;;;;;1.50;1.00;;;21.50;99.90;;;;;;5021587;28;20484;-64
2023/10/28 09:27:35;;;;;;;1.50;1.20;;;21.50;99.90;;;;;;5022742;28;20572;-64
2023/10/28 09:30:07;;;;;;;1.43;1.10;;;21.50;99.90;;;;;;5019456;28;21225;-65
2023/10/28 09:32:35;;;;;;;1.20;0.90;;;21.50;99.90;;;;;;5017058;28;20455;-67
2023/10/28 09:35:05;;;;;;;2.40;1.90;;;21.60;99.90;;;;;;5015251;28;20465;-64
2023/10/28 09:37:33;;;;;;;1.33;1.00;;;21.60;99.90;;;;;;5018137;28;20676;-66
2023/10/28 09:40:04;;;;;;;1.73;1.30;;;21.60;99.90;;;;;;5022302;28;20447;-64
2023/10/28 09:42:31;;;;;;;1.30;1.00;;;21.60;99.90;;;;;;5020753;28;20549;-66
2023/10/28 09:44:58;;;;;;;5.33;1.10;;;21.60;99.90;;;;;;5023265;28;20481;-62
2023/10/28 09:47:32;;;;;;;2.07;0.90;;;21.50;99.90;;;;;;5022174;28;20476;-64
2023/10/28 09:50:04;;;;;;;2.07;1.77;;;21.50;99.90;;;;;;5021756;28;20508;-66
2023/10/28 09:52:33;;;;;;;2.10;0.80;;;21.60;99.90;;;;;;5022145;28;20467;-66
2023/10/28 09:55:05;;;;;;;1.40;1.10;;;21.60;99.90;;;;;;5022740;28;20462;-66
2023/10/28 09:57:33;;;;;;;1.50;1.20;;;21.50;99.90;;;;;;5019157;28;20453;-66
2023/10/28 10:00:03;;;;;;;3.40;1.27;;;21.60;99.90;;;;;;5019290;28;20787;-64
2023/10/28 10:02:38;;;;;;;2.70;1.40;;;21.60;99.90;;;;;;5015374;28;20470;-66
2023/10/28 10:05:11;;;;;;;2.33;2.00;;;21.60;99.90;;;;;;5018223;28;20580;-64
2023/10/28 10:07:38;;;;;;;2.10;1.27;;;21.60;99.90;;;;;;5020191;28;20462;-64
2023/10/28 10:10:13;;;;;;;3.37;1.87;;;21.70;99.90;;;;;;5019771;28;20457;-64
2023/10/28 10:12:40;;;;;;;1.47;1.00;;;21.60;99.90;;;;;;5015909;28;20865;-66
2023/10/28 10:15:10;;;;;;;3.10;0.93;;;21.70;99.90;;;;;;5017224;28;20945;-66
2023/10/28 10:17:46;;;;;;;1.00;0.80;;;21.60;99.90;;;;;;5023102;28;20458;-66
2023/10/28 10:20:12;;;;;;;3.83;1.10;;;21.50;99.90;;;;;;5018087;28;20449;-67
2023/10/28 10:22:41;;;;;;;1.13;0.83;;;21.60;99.90;;;;;;5021798;28;20470;-66
2023/10/28 10:25:10;;;;;;;1.70;1.20;;;21.60;99.90;;;;;;5020058;28;22368;-67
2023/10/28 10:27:39;;;;;;;2.03;0.97;;;21.60;99.90;;;;;;5019255;28;20464;-66
2023/10/28 10:30:09;;;;;;;1.60;1.10;;;21.50;99.90;;;;;;5015850;28;20737;-64
2023/10/28 10:32:46;;;;;;;1.90;1.03;;;21.60;99.90;;;;;;5020918;28;20480;-65
2023/10/28 10:35:14;;;;;;;1.10;1.00;;;21.60;99.90;;;;;;5018252;28;20797;-65
2023/10/28 10:37:40;;;;;;;1.90;1.17;;;21.70;99.90;;;;;;5020086;28;20544;-66
2023/10/28 10:40:13;;;;;;;1.53;1.23;;;21.70;99.90;;;;;;5020319;28;20465;-66
2023/10/28 10:42:40;;;;;;;1.17;0.80;;;21.70;99.90;;;;;;5020273;28;20465;-65
2023/10/28 10:45:08;;;;;;;3.23;1.37;;;21.70;99.90;;;;;;5014204;28;20918;-65
2023/10/28 10:47:36;;;;;;;1.73;1.00;;;21.60;99.90;;;;;;5015501;28;20506;-66
2023/10/28 10:50:04;;;;;;;1.90;1.17;;;21.70;99.90;;;;;;5019656;28;20462;-65
2023/10/28 10:52:31;;;;;;;1.63;1.07;;;21.70;99.90;;;;;;5018231;28;22139;-64
2023/10/28 10:55:04;;;;;;;1.20;0.83;;;21.70;99.90;;;;;;5017049;28;20474;-67
2023/10/28 10:57:33;;;;;;;1.93;1.20;;;21.70;99.90;;;;;;5011244;28;20462;-66
2023/10/28 11:00:01;;;;;;;4.53;1.27;;;21.70;99.90;;;;;;5018811;28;20600;-66
2023/10/28 11:02:27;;;;;;;1.10;0.90;;;21.70;99.90;;;;;;5018126;28;21133;-63
2023/10/28 11:04:55;;;;;;;1.30;1.00;;;21.80;99.90;;;;;;5018473;28;20929;-68
2023/10/28 11:07:22;;;;;;;1.90;1.50;;;21.70;99.90;;;;;;5013559;28;20875;-66
2023/10/28 11:09:50;;;;;;;3.93;1.47;;;21.60;99.90;;;;;;5018739;28;20458;-63
2023/10/28 11:12:22;;;;;;;1.70;1.30;;;21.80;99.90;;;;;;5007988;28;20577;-62
2023/10/28 11:14:53;;;;;;;2.50;1.57;;;21.80;99.90;;;;;;5015387;28;20465;-65
2023/10/28 11:17:20;;;;;;;1.30;0.93;;;21.70;99.90;;;;;;5007921;28;20585;-65
2023/10/28 11:19:50;;;;;;;2.30;1.23;;;21.70;99.90;;;;;;5013359;28;20457;-62
2023/10/28 11:22:17;;;;;;;1.37;1.00;;;21.80;99.90;;;;;;5016653;28;20461;-65
2023/10/28 11:24:44;;;;;;;1.70;1.00;;;21.80;99.90;;;;;;5013726;28;20458;-65
2023/10/28 11:27:19;;;;;;;3.97;1.50;;;21.70;99.90;;;;;;5017287;28;20494;-65
2023/10/28 11:29:46;;;;;;;1.30;1.10;;;21.80;99.90;;;;;;5011543;28;20846;-65
2023/10/28 11:32:14;;;;;;;2.70;1.17;;;21.90;99.90;;;;;;5011267;28;20461;-64
2023/10/28 11:34:41;;;;;;;1.30;1.10;;;21.80;99.90;;;;;;5017013;28;20905;-64
2023/10/28 11:37:09;;;;;;;7.33;0.93;;;21.80;99.90;;;;;;5017658;28;20473;-67
2023/10/28 11:39:36;;;;;;;1.87;1.10;;;21.80;99.90;;;;;;5019546;28;20462;-65
2023/10/28 11:42:09;;;;;;;1.70;1.03;;;21.90;99.90;;;;;;5018956;28;20468;-66
2023/10/28 11:44:36;;;;;;;1.60;1.30;;;21.80;99.90;;;;;;5016071;28;20517;-66
2023/10/28 11:47:03;;;;;;;1.67;1.30;;;21.80;99.90;;;;;;5017924;28;20485;-65
2023/10/28 11:49:31;;;;;;;2.03;1.20;;;21.80;99.90;;;;;;5020974;28;20544;-63
2023/10/28 11:51:58;;;;;;;1.20;0.90;;;21.80;99.90;;;;;;5019987;28;20464;-62
2023/10/28 11:54:25;;;;;;;1.90;1.10;;;21.90;99.90;;;;;;5013391;28;20462;-58
2023/10/28 11:56:52;;;;;;;1.80;1.10;;;21.80;99.90;;;;;;5014836;28;20998;-67
2023/10/28 11:59:18;;;;;;;1.60;1.20;;;21.80;99.90;;;;;;5016278;28;20458;-73
2023/10/28 12:01:45;;;;;;;2.13;1.20;;;21.90;99.90;;;;;;5014171;28;21482;-67
2023/10/28 12:04:12;;;;;;;1.40;0.90;;;21.80;99.90;;;;;;5016513;28;20449;-69
2023/10/28 12:06:41;;;;;;;3.70;1.10;;;21.70;99.90;;;;;;5015038;28;20482;-66
2023/10/28 12:09:11;;;;;;;1.37;1.00;;;21.80;99.90;;;;;;5017730;28;20461;-69
2023/10/28 12:11:38;;;;;;;1.40;1.27;;;21.80;99.70;;;;;;5019394;28;20486;-79
2023/10/28 12:14:07;;;;;;;1.20;1.00;;;21.80;99.60;;;;;;5017370;28;20485;-67
2023/10/28 12:16:37;;;;;;;2.97;0.83;;;21.80;99.30;;;;;;5014239;28;21039;-69
2023/10/28 12:19:05;;;;;;;1.40;1.17;;;21.80;99.30;;;;;;5020332;28;20461;-67
2023/10/28 12:21:32;;;;;;;1.30;1.03;;;21.80;99.20;;;;;;5019612;28;20826;-67
2023/10/28 12:24:00;;;;;;;2.43;1.10;;;21.90;99.20;;;;;;5019877;28;20465;-69
2023/10/28 12:26:27;;;;;;;1.10;0.90;;;21.90;99.20;;;;;;5014994;28;20993;-67
2023/10/28 12:28:54;;;;;;;1.13;1.00;;;21.90;99.30;;;;;;5020268;28;20551;-65
2023/10/28 12:31:23;;;;;;;2.13;0.90;;;21.90;99.70;;;;;;5011304;28;20464;-67
2023/10/28 12:33:50;;;;;;;1.83;1.20;;;22.00;99.40;;;;;;5016978;28;20473;-69
2023/10/28 12:36:17;;;;;;;3.00;1.67;;;22.00;98.40;;;;;;5017441;28;20463;-70
2023/10/28 12:38:45;;;;;;;14.73;1.23;;;22.00;98.30;;;;;;5011015;28;21090;-69
2023/10/28 12:41:13;;;;;;;6.20;1.30;;;21.90;98.80;;;;;;5013760;28;20589;-67
2023/10/28 12:43:40;;;;;;;1.40;0.80;;;21.90;99.30;;;;;;5013571;28;20472;-65
2023/10/28 12:46:08;;;;;;;7.60;1.40;;;21.90;99.90;;;;;;5021370;28;20482;-67
2023/10/28 12:48:35;;;;;;;1.43;1.00;;;22.00;99.90;;;;;;5018583;28;20469;-66
2023/10/28 12:51:01;;;;;;;1.50;1.30;;;22.10;99.90;;;;;;5016672;28;20964;-63